Time;durP1;ratioP1;P1;durP2;ratioP2;P2;SDS_P1;SDS_P2;PMS_P1;PMS_P2;Temp;Humidity;BMP_temperature;BMP_pressure;BME280_temperature;BME280_humidity;BME280_pressure;Samples;Min_cycle;Max_cycle;Signal;HPM_P1;HPM_P2
2022/08/01 00:00:03;;;;;;;3.65;2.03;;;;;;;;;;5072282;28;20059;-68
2022/08/01 00:02:30;;;;;;;2.00;1.80;;;;;;;;;;5072312;28;20090;-68
2022/08/01 00:04:57;;;;;;;2.47;2.05;;;;;;;;;;5072068;28;20098;-67
2022/08/01 00:07:24;;;;;;;1.65;1.55;;;;;;;;;;5071998;28;20418;-68
2022/08/01 00:09:51;;;;;;;2.70;2.22;;;;;;;;;;5071933;28;20048;-67
2022/08/01 00:12:18;;;;;;;2.50;1.90;;;;;;;;;;5072116;28;20056;-68
2022/08/01 00:14:44;;;;;;;2.55;1.63;;;;;;;;;;5071502;28;20047;-68
2022/08/01 00:17:11;;;;;;;2.30;1.65;;;;;;;;;;5071905;28;20060;-68
2022/08/01 00:19:37;;;;;;;2.15;1.83;;;;;;;;;;5071977;28;20056;-67
2022/08/01 00:22:04;;;;;;;1.98;1.75;;;;;;;;;;5071957;28;20051;-68
2022/08/01 00:24:31;;;;;;;2.10;1.85;;;;;;;;;;5072041;28;20045;-68
2022/08/01 00:26:58;;;;;;;3.20;1.70;;;;;;;;;;5072062;28;20052;-68
2022/08/01 00:29:24;;;;;;;2.92;2.10;;;;;;;;;;5071571;28;20514;-68
2022/08/01 00:32:11;;;;;;;2.95;1.70;;;;;;;;;;5071752;28;20090;-68
2022/08/01 00:34:38;;;;;;;1.92;1.70;;;;;;;;;;5071668;28;20055;-68
2022/08/01 00:37:06;;;;;;;2.00;1.80;;;;;;;;;;5071714;28;20056;-68
2022/08/01 00:39:33;;;;;;;2.28;1.92;;;;;;;;;;5071650;28;20052;-68
2022/08/01 00:42:00;;;;;;;3.28;1.60;;;;;;;;;;5071663;28;20052;-67
2022/08/01 00:44:27;;;;;;;2.30;1.70;;;;;;;;;;5053727;28;20055;-68
2022/08/01 00:46:53;;;;;;;2.33;1.83;;;;;;;;;;5071498;28;20044;-68
2022/08/01 00:49:20;;;;;;;2.75;1.92;;;;;;;;;;5071372;28;20054;-68
2022/08/01 00:51:48;;;;;;;2.13;1.98;;;;;;;;;;5053924;28;20457;-68
2022/08/01 00:54:15;;;;;;;2.10;1.83;;;;;;;;;;5071649;28;20048;-68
2022/08/01 00:56:42;;;;;;;1.83;1.73;;;;;;;;;;5037697;28;20094;-68
2022/08/01 00:59:09;;;;;;;2.58;2.30;;;;;;;;;;5053417;28;20368;-68
2022/08/01 01:01:36;;;;;;;2.85;2.00;;;;;;;;;;5053658;28;20680;-68
2022/08/01 01:04:05;;;;;;;2.25;2.05;;;;;;;;;;5071524;28;20045;-68
2022/08/01 01:06:46;;;;;;;3.60;1.73;;;;;;;;;;5071587;28;20052;-68
2022/08/01 01:09:21;;;;;;;1.73;1.60;;;;;;;;;;5071228;28;20053;-68
2022/08/01 01:12:02;;;;;;;2.20;2.00;;;;;;;;;;5071378;28;20055;-68
2022/08/01 01:14:34;;;;;;;2.25;2.03;;;;;;;;;;5071593;28;20387;-68
2022/08/01 01:17:01;;;;;;;3.47;2.33;;;;;;;;;;5053835;28;20055;-68
2022/08/01 01:19:30;;;;;;;6.03;2.05;;;;;;;;;;5053392;28;20059;-68
2022/08/01 01:22:01;;;;;;;2.85;2.00;;;;;;;;;;5071424;28;20059;-68
2022/08/01 01:25:17;;;;;;;2.55;2.17;;;;;;;;;;5053451;28;20049;-68
2022/08/01 01:28:11;;;;;;;3.50;2.10;;;;;;;;;;5052462;28;20049;-67
2022/08/01 01:30:38;;;;;;;2.60;2.10;;;;;;;;;;5030108;28;20060;-67
2022/08/01 01:33:07;;;;;;;4.10;2.28;;;;;;;;;;5057361;28;20135;-67
2022/08/01 01:35:36;;;;;;;3.00;1.80;;;;;;;;;;5041259;28;20048;-68
2022/08/01 01:38:09;;;;;;;2.10;1.90;;;;;;;;;;5057371;28;20052;-68
2022/08/01 01:40:36;;;;;;;2.15;1.95;;;;;;;;;;5040858;28;20049;-68
2022/08/01 01:43:02;;;;;;;2.58;1.88;;;;;;;;;;5057207;28;20055;-68
2022/08/01 01:45:29;;;;;;;4.43;2.20;;;;;;;;;;5074614;28;20048;-68
2022/08/01 01:47:56;;;;;;;3.55;2.10;;;;;;;;;;5074674;28;20044;-68
2022/08/01 01:50:23;;;;;;;2.85;2.13;;;;;;;;;;5057129;28;20048;-68
2022/08/01 01:52:50;;;;;;;2.30;2.10;;;;;;;;;;5040805;28;20055;-68
2022/08/01 01:55:16;;;;;;;2.95;2.47;;;;;;;;;;5056970;28;20044;-68
2022/08/01 01:57:43;;;;;;;3.08;2.10;;;;;;;;;;5056606;28;20048;-68
2022/08/01 02:00:11;;;;;;;2.17;1.98;;;;;;;;;;5056719;28;20490;-68
2022/08/01 02:02:38;;;;;;;3.88;2.40;;;;;;;;;;5040723;28;20420;-68
2022/08/01 02:05:10;;;;;;;2.67;1.80;;;;;;;;;;5056790;28;20117;-67
2022/08/01 02:07:37;;;;;;;2.17;1.98;;;;;;;;;;5056941;28;20059;-68
2022/08/01 02:10:05;;;;;;;2.22;1.92;;;;;;;;;;5074084;28;20045;-68
2022/08/01 02:12:34;;;;;;;1.88;1.77;;;;;;;;;;5056964;28;20406;-68
2022/08/01 02:15:01;;;;;;;2.83;2.45;;;;;;;;;;5056586;28;20051;-68
2022/08/01 02:17:27;;;;;;;2.72;2.15;;;;;;;;;;5074193;28;20510;-68
2022/08/01 02:19:54;;;;;;;2.45;2.08;;;;;;;;;;5073765;28;20059;-67
2022/08/01 02:22:34;;;;;;;2.97;2.20;;;;;;;;;;5056397;28;20059;-68
2022/08/01 02:25:11;;;;;;;2.60;1.95;;;;;;;;;;5056314;28;20041;-68
2022/08/01 02:28:01;;;;;;;2.38;2.17;;;;;;;;;;5057748;28;20445;-68
2022/08/01 02:30:34;;;;;;;3.40;2.28;;;;;;;;;;5041268;28;20053;-68
2022/08/01 02:33:07;;;;;;;2.25;2.03;;;;;;;;;;5073855;28;20056;-68
2022/08/01 02:35:42;;;;;;;2.33;2.13;;;;;;;;;;5057277;28;20084;-68
2022/08/01 02:38:30;;;;;;;3.00;2.30;;;;;;;;;;5073095;28;20072;-67
2022/08/01 02:40:59;;;;;;;2.85;1.83;;;;;;;;;;5056293;28;20059;-68
2022/08/01 02:43:26;;;;;;;2.88;2.15;;;;;;;;;;5055909;28;20052;-67
2022/08/01 02:45:56;;;;;;;2.72;2.13;;;;;;;;;;5056125;28;20063;-67
2022/08/01 02:48:22;;;;;;;2.95;2.75;;;;;;;;;;5055754;28;20045;-67
2022/08/01 02:50:49;;;;;;;2.33;2.13;;;;;;;;;;5056065;28;20064;-68
2022/08/01 02:53:17;;;;;;;2.80;1.75;;;;;;;;;;5055923;28;20495;-68
2022/08/01 02:55:44;;;;;;;3.90;2.38;;;;;;;;;;5055859;28;20044;-67
2022/08/01 02:58:11;;;;;;;3.10;2.05;;;;;;;;;;5038928;28;20507;-68
2022/08/01 03:00:38;;;;;;;2.92;2.05;;;;;;;;;;5055757;28;20080;-68
2022/08/01 03:03:06;;;;;;;2.67;2.17;;;;;;;;;;5055723;28;20052;-68
2022/08/01 03:05:33;;;;;;;2.88;2.10;;;;;;;;;;5039229;28;20047;-67
2022/08/01 03:08:00;;;;;;;2.22;2.03;;;;;;;;;;5038921;28;20060;-67
2022/08/01 03:10:29;;;;;;;2.97;2.10;;;;;;;;;;5055838;28;20056;-67
2022/08/01 03:12:57;;;;;;;2.60;1.85;;;;;;;;;;5055336;28;20051;-67
2022/08/01 03:15:24;;;;;;;3.22;2.35;;;;;;;;;;5055390;28;20525;-67
2022/08/01 03:17:51;;;;;;;2.88;2.25;;;;;;;;;;5073099;28;20055;-67
2022/08/01 03:20:19;;;;;;;3.25;2.10;;;;;;;;;;5054611;28;20504;-67
2022/08/01 03:22:45;;;;;;;2.05;1.95;;;;;;;;;;5055331;28;20086;-67
2022/08/01 03:25:13;;;;;;;2.10;1.90;;;;;;;;;;5038611;28;20048;-67
2022/08/01 03:27:40;;;;;;;3.58;1.92;;;;;;;;;;5072935;28;20419;-67
2022/08/01 03:30:07;;;;;;;2.88;2.17;;;;;;;;;;5054874;28;20049;-67
2022/08/01 03:32:35;;;;;;;2.15;2.05;;;;;;;;;;5054972;28;20052;-67
2022/08/01 03:35:02;;;;;;;2.92;2.00;;;;;;;;;;5038687;28;20487;-67
2022/08/01 03:37:38;;;;;;;3.20;2.10;;;;;;;;;;5054942;28;20056;-67
2022/08/01 03:40:53;;;;;;;4.07;2.45;;;;;;;;;;5044644;28;20056;-67
2022/08/01 03:43:26;;;;;;;3.05;2.60;;;;;;;;;;5055929;28;20053;-67
2022/08/01 03:45:53;;;;;;;;;;;;;;;;;;5073319;28;20045;-67
2022/08/01 03:48:22;;;;;;;2.53;2.22;;;;;;;;;;5054530;28;19921;-67
2022/08/01 03:50:51;;;;;;;2.40;2.20;;;;;;;;;;5037413;28;20495;-67
2022/08/01 03:53:24;;;;;;;2.50;2.30;;;;;;;;;;5054714;28;20048;-67
2022/08/01 03:55:51;;;;;;;3.00;2.05;;;;;;;;;;5038454;28;20438;-67
2022/08/01 03:58:18;;;;;;;3.10;2.28;;;;;;;;;;5057735;23;20048;-64
2022/08/01 04:00:45;;;;;;;3.20;2.30;;;;;;;;;;5072211;28;20052;-64
2022/08/01 04:03:13;;;;;;;2.38;2.15;;;;;;;;;;5054696;28;20449;-64
2022/08/01 04:05:41;;;;;;;4.10;2.30;;;;;;;;;;5038060;28;20060;-66
2022/08/01 04:08:08;;;;;;;2.22;2.03;;;;;;;;;;5072036;28;20048;-64
2022/08/01 04:10:35;;;;;;;2.47;2.20;;;;;;;;;;5072047;28;20418;-66
2022/08/01 04:13:01;;;;;;;3.85;2.10;;;;;;;;;;5038312;28;20072;-65
2022/08/01 04:15:28;;;;;;;1.88;1.77;;;;;;;;;;5072431;28;20044;-64
2022/08/01 04:17:55;;;;;;;2.58;1.75;;;;;;;;;;5054513;28;20058;-65
2022/08/01 04:20:21;;;;;;;2.22;2.03;;;;;;;;;;5071432;28;20135;-65
2022/08/01 04:22:49;;;;;;;2.92;2.22;;;;;;;;;;5072027;28;20060;-64
2022/08/01 04:25:24;;;;;;;2.72;2.30;;;;;;;;;;5072273;28;20044;-65
2022/08/01 04:27:51;;;;;;;1.98;1.77;;;;;;;;;;5038517;28;20503;-65
2022/08/01 04:30:21;;;;;;;4.32;2.30;;;;;;;;;;5072018;28;20426;-64
2022/08/01 04:32:48;;;;;;;2.65;2.00;;;;;;;;;;5038058;28;20056;-65
2022/08/01 04:35:18;;;;;;;2.42;1.77;;;;;;;;;;5054117;28;20052;-64
2022/08/01 04:38:05;;;;;;;1.95;1.83;;;;;;;;;;5057158;28;20052;-66
2022/08/01 04:40:31;;;;;;;1.92;1.73;;;;;;;;;;5072056;28;20083;-65
2022/08/01 04:42:58;;;;;;;3.95;2.13;;;;;;;;;;5053979;28;20518;-65
2022/08/01 04:45:24;;;;;;;2.38;1.70;;;;;;;;;;5071499;28;20045;-65
2022/08/01 04:47:51;;;;;;;2.20;1.83;;;;;;;;;;5037344;28;20045;-65
2022/08/01 04:50:21;;;;;;;3.60;2.13;;;;;;;;;;5037581;28;20519;-65
2022/08/01 04:52:48;;;;;;;3.20;1.83;;;;;;;;;;5072026;28;20049;-65
2022/08/01 04:55:16;;;;;;;6.47;2.10;;;;;;;;;;5071861;28;20411;-65
2022/08/01 04:57:45;;;;;;;3.10;2.15;;;;;;;;;;5071630;28;20052;-65
2022/08/01 05:00:12;;;;;;;4.03;2.10;;;;;;;;;;5021189;28;20048;-66
2022/08/01 05:02:39;;;;;;;3.47;2.10;;;;;;;;;;5075138;28;20418;-66
2022/08/01 05:05:06;;;;;;;2.15;1.95;;;;;;;;;;5075533;28;20060;-66
2022/08/01 05:07:33;;;;;;;2.10;2.00;;;;;;;;;;5075658;28;20053;-66
2022/08/01 05:10:11;;;;;;;2.60;1.98;;;;;;;;;;5075510;28;20052;-65
2022/08/01 05:12:37;;;;;;;3.15;2.08;;;;;;;;;;5075728;28;20056;-65
2022/08/01 05:15:06;;;;;;;3.70;2.00;;;;;;;;;;5075579;28;20103;-66
2022/08/01 05:17:42;;;;;;;3.35;2.03;;;;;;;;;;5075514;28;20057;-65
2022/08/01 05:20:09;;;;;;;3.53;1.95;;;;;;;;;;5075563;28;20139;-66
2022/08/01 05:22:36;;;;;;;1.50;1.40;;;;;;;;;;5075548;28;20052;-66
2022/08/01 05:25:04;;;;;;;2.10;1.60;;;;;;;;;;5075380;28;20048;-65
2022/08/01 05:27:32;;;;;;;2.35;2.03;;;;;;;;;;5075292;28;20098;-65
2022/08/01 05:29:59;;;;;;;2.63;1.40;;;;;;;;;;5074945;28;20044;-66
2022/08/01 05:32:25;;;;;;;1.70;1.60;;;;;;;;;;5075388;28;20080;-65
2022/08/01 05:34:52;;;;;;;2.95;1.83;;;;;;;;;;5075326;28;20053;-66
2022/08/01 05:37:19;;;;;;;3.20;1.50;;;;;;;;;;5075240;28;20044;-66
2022/08/01 05:39:45;;;;;;;3.92;1.75;;;;;;;;;;5074714;28;20059;-64
2022/08/01 05:42:12;;;;;;;2.63;1.52;;;;;;;;;;5075467;28;20051;-64
2022/08/01 05:44:39;;;;;;;1.88;1.63;;;;;;;;;;5074908;28;20107;-65
2022/08/01 05:47:05;;;;;;;1.55;1.45;;;;;;;;;;5074824;28;20127;-64
2022/08/01 05:49:32;;;;;;;2.78;1.88;;;;;;;;;;5074730;28;20052;-64
2022/08/01 05:52:00;;;;;;;3.08;1.80;;;;;;;;;;5075091;28;20048;-64
2022/08/01 05:54:28;;;;;;;1.88;1.70;;;;;;;;;;5074638;28;20056;-65
2022/08/01 05:56:59;;;;;;;3.92;1.67;;;;;;;;;;5074716;28;20044;-66
2022/08/01 05:59:26;;;;;;;1.70;1.48;;;;;;;;;;5074334;28;20060;-65
2022/08/01 06:01:52;;;;;;;3.03;1.42;;;;;;;;;;5040662;28;20232;-66
2022/08/01 06:04:19;;;;;;;1.52;1.33;;;;;;;;;;5074664;28;20078;-65
2022/08/01 06:06:46;;;;;;;2.00;1.50;;;;;;;;;;5074571;28;20044;-65
2022/08/01 06:09:13;;;;;;;3.30;1.55;;;;;;;;;;5074261;28;20048;-64
2022/08/01 06:11:39;;;;;;;2.65;1.55;;;;;;;;;;5056886;28;20092;-65
2022/08/01 06:14:06;;;;;;;3.35;1.65;;;;;;;;;;5073170;28;20487;-65
2022/08/01 06:16:33;;;;;;;2.88;1.48;;;;;;;;;;5074795;28;20450;-64
2022/08/01 06:18:59;;;;;;;4.63;1.60;;;;;;;;;;5074136;28;20053;-66
2022/08/01 06:21:26;;;;;;;3.15;1.50;;;;;;;;;;5074434;28;20053;-66
2022/08/01 06:23:53;;;;;;;3.15;1.58;;;;;;;;;;5074731;28;20052;-65
2022/08/01 06:26:20;;;;;;;2.75;1.17;;;;;;;;;;5074083;28;20413;-65
2022/08/01 06:28:46;;;;;;;3.20;1.67;;;;;;;;;;5073945;28;20051;-65
2022/08/01 06:31:14;;;;;;;1.67;1.38;;;;;;;;;;5074133;28;20067;-65
2022/08/01 06:33:41;;;;;;;2.65;1.50;;;;;;;;;;5074070;28;20056;-66
2022/08/01 06:36:08;;;;;;;4.18;2.13;;;;;;;;;;5074098;28;20415;-66
2022/08/01 06:38:35;;;;;;;3.22;1.67;;;;;;;;;;5073836;28;20060;-65
2022/08/01 06:41:02;;;;;;;1.50;1.23;;;;;;;;;;5073960;28;20055;-66
2022/08/01 06:43:29;;;;;;;3.25;1.55;;;;;;;;;;5074051;28;20056;-66
2022/08/01 06:45:55;;;;;;;1.50;1.40;;;;;;;;;;5073718;28;20048;-66
2022/08/01 06:48:22;;;;;;;2.08;1.40;;;;;;;;;;5073617;28;20419;-66
2022/08/01 06:51:07;;;;;;;1.77;1.30;;;;;;;;;;5073745;28;20053;-67
2022/08/01 06:53:36;;;;;;;3.20;1.38;;;;;;;;;;5073568;28;20045;-66
2022/08/01 06:56:03;;;;;;;2.20;1.10;;;;;;;;;;5073830;28;20044;-66
2022/08/01 06:58:30;;;;;;;2.05;1.20;;;;;;;;;;5073530;28;20453;-66
2022/08/01 07:00:57;;;;;;;3.13;1.35;;;;;;;;;;5073751;28;20048;-66
2022/08/01 07:03:25;;;;;;;2.17;1.30;;;;;;;;;;5073528;28;20098;-67
2022/08/01 07:06:11;;;;;;;1.30;1.08;;;;;;;;;;5073282;28;20055;-66
2022/08/01 07:08:40;;;;;;;3.15;1.30;;;;;;;;;;5073088;28;20053;-66
2022/08/01 07:11:07;;;;;;;1.42;1.10;;;;;;;;;;5073330;28;20135;-66
2022/08/01 07:13:33;;;;;;;1.52;1.17;;;;;;;;;;5073068;28;20060;-67
2022/08/01 07:16:09;;;;;;;1.48;1.02;;;;;;;;;;5073627;28;20507;-67
2022/08/01 07:18:35;;;;;;;2.42;1.20;;;;;;;;;;5072820;28;20055;-66
2022/08/01 07:21:02;;;;;;;1.30;1.00;;;;;;;;;;5073150;28;20059;-67
2022/08/01 07:23:30;;;;;;;7.15;1.30;;;;;;;;;;5073042;28;20051;-67
2022/08/01 07:26:03;;;;;;;1.38;1.10;;;;;;;;;;5073210;28;20048;-66
2022/08/01 07:28:30;;;;;;;1.20;1.00;;;;;;;;;;5055170;28;20414;-67
2022/08/01 07:30:57;;;;;;;4.30;1.50;;;;;;;;;;5072841;28;20051;-66
2022/08/01 07:33:23;;;;;;;4.07;1.10;;;;;;;;;;5073094;28;20052;-66
2022/08/01 07:35:50;;;;;;;1.42;1.30;;;;;;;;;;5073146;28;20048;-66
2022/08/01 07:38:17;;;;;;;1.23;1.10;;;;;;;;;;5072884;28;20050;-66
2022/08/01 07:40:44;;;;;;;1.48;1.05;;;;;;;;;;5072947;28;20055;-67
2022/08/01 07:43:10;;;;;;;1.20;1.10;;;;;;;;;;5072695;28;20422;-66
2022/08/01 07:45:37;;;;;;;1.70;1.33;;;;;;;;;;5072618;28;20064;-67
2022/08/01 07:48:09;;;;;;;1.83;1.10;;;;;;;;;;5072478;28;20110;-66
2022/08/01 07:50:36;;;;;;;3.10;1.00;;;;;;;;;;5054963;28;20055;-67
2022/08/01 07:53:03;;;;;;;1.10;1.00;;;;;;;;;;5072744;28;20054;-67
2022/08/01 07:55:30;;;;;;;1.30;0.90;;;;;;;;;;5072525;28;20059;-67
2022/08/01 07:57:56;;;;;;;2.13;1.20;;;;;;;;;;5072088;28;20053;-67
2022/08/01 08:00:24;;;;;;;1.40;1.00;;;;;;;;;;5072442;28;20170;-66
2022/08/01 08:02:50;;;;;;;1.85;1.17;;;;;;;;;;5072331;28;20048;-67
2022/08/01 08:05:17;;;;;;;2.40;1.15;;;;;;;;;;5072520;28;20427;-66
2022/08/01 08:08:05;;;;;;;2.58;1.13;;;;;;;;;;5072075;28;20495;-66
2022/08/01 08:10:32;;;;;;;3.05;1.33;;;;;;;;;;5072139;28;20052;-66
2022/08/01 08:12:59;;;;;;;2.25;1.50;;;;;;;;;;5072357;28;20056;-66
2022/08/01 08:15:25;;;;;;;4.25;1.30;;;;;;;;;;5072384;28;20045;-66
2022/08/01 08:17:52;;;;;;;2.53;1.55;;;;;;;;;;5072032;28;20058;-67
2022/08/01 08:20:26;;;;;;;2.38;1.40;;;;;;;;;;5071470;28;20049;-66
2022/08/01 08:22:53;;;;;;;17.25;2.08;;;;;;;;;;5072140;28;20056;-66
2022/08/01 08:25:21;;;;;;;3.45;1.20;;;;;;;;;;5071956;28;20048;-67
2022/08/01 08:27:52;;;;;;;1.93;1.20;;;;;;;;;;5071946;28;20070;-67
2022/08/01 08:30:19;;;;;;;7.72;1.30;;;;;;;;;;5072213;28;20427;-66
2022/08/01 08:32:47;;;;;;;2.20;1.20;;;;;;;;;;5072042;28;20052;-65
2022/08/01 08:35:14;;;;;;;3.78;1.38;;;;;;;;;;5071787;28;20126;-66
2022/08/01 08:38:00;;;;;;;2.22;1.30;;;;;;;;;;5071679;28;20106;-66
2022/08/01 08:40:29;;;;;;;1.90;1.20;;;;;;;;;;5071967;28;20044;-66
2022/08/01 08:42:57;;;;;;;2.30;1.48;;;;;;;;;;5071953;28;20059;-66
2022/08/01 08:45:24;;;;;;;2.10;1.55;;;;;;;;;;5054088;28;20063;-66
2022/08/01 08:48:11;;;;;;;4.43;1.50;;;;;;;;;;5056963;28;20056;-66
2022/08/01 08:50:37;;;;;;;2.95;1.75;;;;;;;;;;5054096;28;20052;-66
2022/08/01 08:53:04;;;;;;;6.38;1.83;;;;;;;;;;5037805;28;20053;-65
2022/08/01 08:55:32;;;;;;;2.30;1.30;;;;;;;;;;5071907;28;20052;-66
2022/08/01 08:58:18;;;;;;;2.03;1.58;;;;;;;;;;5056500;28;20454;-65
2022/08/01 09:00:45;;;;;;;3.03;1.63;;;;;;;;;;5054033;28;20052;-67
2022/08/01 09:03:14;;;;;;;3.03;1.40;;;;;;;;;;5054197;28;20048;-66
2022/08/01 09:05:41;;;;;;;2.45;1.30;;;;;;;;;;5071559;28;20048;-66
2022/08/01 09:08:07;;;;;;;3.75;1.48;;;;;;;;;;5053630;28;20055;-66
2022/08/01 09:10:34;;;;;;;3.10;1.92;;;;;;;;;;5071901;28;20059;-66
2022/08/01 09:13:05;;;;;;;3.13;1.77;;;;;;;;;;5071423;28;20052;-65
2022/08/01 09:15:41;;;;;;;2.67;1.73;;;;;;;;;;5071827;28;20076;-66
2022/08/01 09:18:08;;;;;;;2.45;1.48;;;;;;;;;;5071425;28;20514;-66
2022/08/01 09:20:35;;;;;;;3.47;1.80;;;;;;;;;;5053687;28;20049;-66
2022/08/01 09:23:03;;;;;;;2.45;1.70;;;;;;;;;;5071544;28;20055;-66
2022/08/01 09:25:33;;;;;;;2.40;1.83;;;;;;;;;;5071309;28;20495;-66
2022/08/01 09:28:12;;;;;;;2.50;2.03;;;;;;;;;;5071133;28;20127;-66
2022/08/01 09:30:41;;;;;;;3.15;1.70;;;;;;;;;;5071569;28;20048;-66
2022/08/01 09:33:08;;;;;;;1.85;1.75;;;;;;;;;;5053648;28;20505;-66
2022/08/01 09:35:55;;;;;;;2.20;1.80;;;;;;;;;;5071346;28;20518;-66
2022/08/01 09:38:23;;;;;;;2.50;2.10;;;;;;;;;;5071286;28;20526;-66
2022/08/01 09:41:00;;;;;;;2.42;1.90;;;;;;;;;;5071626;28;20083;-66
2022/08/01 09:43:28;;;;;;;2.65;2.28;;;;;;;;;;5071330;28;20052;-65
2022/08/01 09:45:57;;;;;;;3.78;2.50;;;;;;;;;;5071171;28;20127;-66
2022/08/01 09:48:24;;;;;;;3.42;2.60;;;;;;;;;;5073536;28;20558;-66
2022/08/01 09:50:56;;;;;;;4.43;3.17;;;;;;;;;;5075591;28;20131;-65
2022/08/01 09:53:48;;;;;;;3.28;2.42;;;;;;;;;;5075108;28;20060;-66
2022/08/01 09:56:18;;;;;;;3.30;2.72;;;;;;;;;;5074766;28;20061;-66
2022/08/01 09:58:56;;;;;;;3.03;2.72;;;;;;;;;;5075000;28;20514;-66
2022/08/01 10:01:28;;;;;;;3.08;2.70;;;;;;;;;;5057972;28;20080;-66
2022/08/01 10:04:08;;;;;;;4.47;3.30;;;;;;;;;;5074577;28;20045;-67
2022/08/01 10:06:37;;;;;;;3.67;2.70;;;;;;;;;;5074824;28;20319;-66
2022/08/01 10:09:03;;;;;;;3.88;2.55;;;;;;;;;;5040198;28;20048;-67
2022/08/01 10:11:31;;;;;;;3.30;2.53;;;;;;;;;;5074379;28;20048;-67
2022/08/01 10:14:02;;;;;;;2.97;2.27;;;;;;;;;;5057718;28;20056;-66
2022/08/01 10:16:29;;;;;;;5.22;2.50;;;;;;;;;;5074604;28;20623;-66
2022/08/01 10:18:56;;;;;;;4.40;2.47;;;;;;;;;;5056533;28;20466;-67
2022/08/01 10:21:23;;;;;;;3.08;2.67;;;;;;;;;;5074413;28;20476;-66
2022/08/01 10:24:10;;;;;;;2.90;2.50;;;;;;;;;;5045763;28;20139;-66
2022/08/01 10:26:36;;;;;;;6.68;2.45;;;;;;;;;;5040051;28;20135;-66
2022/08/01 10:29:05;;;;;;;2.60;2.40;;;;;;;;;;5074120;28;20044;-65
2022/08/01 10:31:52;;;;;;;2.33;2.13;;;;;;;;;;5059490;28;20059;-66
2022/08/01 10:34:25;;;;;;;2.05;1.77;;;;;;;;;;5074030;28;20107;-66
2022/08/01 10:36:54;;;;;;;2.85;2.00;;;;;;;;;;5074276;28;20044;-66
2022/08/01 10:39:21;;;;;;;2.67;1.88;;;;;;;;;;5056361;28;20423;-67
2022/08/01 10:41:49;;;;;;;2.13;1.92;;;;;;;;;;5074022;28;20048;-65
2022/08/01 10:44:16;;;;;;;3.17;2.00;;;;;;;;;;5074081;28;20103;-67
2022/08/01 10:46:46;;;;;;;4.57;2.20;;;;;;;;;;5073727;28;20051;-66
2022/08/01 10:49:15;;;;;;;3.45;2.22;;;;;;;;;;5055891;28;20060;-67
2022/08/01 10:51:42;;;;;;;1.88;1.63;;;;;;;;;;5040072;28;20079;-66
2022/08/01 10:54:20;;;;;;;2.63;1.70;;;;;;;;;;5057881;28;20059;-66
2022/08/01 10:56:51;;;;;;;2.97;1.60;;;;;;;;;;5040756;28;20143;-67
2022/08/01 10:59:23;;;;;;;1.75;1.65;;;;;;;;;;5054921;28;20052;-65
2022/08/01 11:02:10;;;;;;;2.75;1.95;;;;;;;;;;5073494;28;20507;-66
2022/08/01 11:05:07;;;;;;;3.92;1.70;;;;;;;;;;5055768;28;20496;-67
2022/08/01 11:07:46;;;;;;;2.63;2.42;;;;;;;;;;5041114;28;20076;-67
2022/08/01 11:10:26;;;;;;;1.75;1.65;;;;;;;;;;5057116;28;20071;-67
2022/08/01 11:12:52;;;;;;;2.50;2.30;;;;;;;;;;5055684;28;20048;-67
2022/08/01 11:15:27;;;;;;;2.20;2.00;;;;;;;;;;5055498;28;20049;-67
2022/08/01 11:17:57;;;;;;;2.80;2.00;;;;;;;;;;5072870;28;20174;-66
2022/08/01 11:20:30;;;;;;;4.35;1.92;;;;;;;;;;5055697;28;20404;-65
2022/08/01 11:23:12;;;;;;;1.90;1.80;;;;;;;;;;5073222;28;20053;-66
2022/08/01 11:25:41;;;;;;;1.52;1.42;;;;;;;;;;5072868;28;20581;-66
2022/08/01 11:28:29;;;;;;;2.08;1.65;;;;;;;;;;5072519;28;20047;-65
2022/08/01 11:31:11;;;;;;;1.67;1.58;;;;;;;;;;5072881;28;20048;-66
2022/08/01 11:33:40;;;;;;;1.60;1.27;;;;;;;;;;5073089;28;20048;-67
2022/08/01 11:36:15;;;;;;;6.03;2.42;;;;;;;;;;5072826;28;20131;-66
2022/08/01 11:39:04;;;;;;;1.58;1.40;;;;;;;;;;5072514;28;20049;-67
2022/08/01 11:41:39;;;;;;;2.25;1.85;;;;;;;;;;5072839;28;20127;-66
2022/08/01 11:44:10;;;;;;;1.80;1.67;;;;;;;;;;5072781;28;20048;-67
2022/08/01 11:47:09;;;;;;;3.00;1.37;;;;;;;;;;5072612;28;20064;-67
2022/08/01 11:49:54;;;;;;;1.70;1.60;;;;;;;;;;5072519;28;20099;-66
2022/08/01 11:52:35;;;;;;;1.88;1.77;;;;;;;;;;5072762;28;20133;-67
2022/08/01 11:55:06;;;;;;;3.45;2.08;;;;;;;;;;5072515;28;20102;-66
2022/08/01 11:57:37;;;;;;;1.58;1.48;;;;;;;;;;5072434;28;20040;-66
2022/08/01 12:00:19;;;;;;;1.98;1.58;;;;;;;;;;5071946;28;20139;-66
2022/08/01 12:02:46;;;;;;;1.63;1.52;;;;;;;;;;5072583;28;20128;-67
2022/08/01 12:05:16;;;;;;;2.88;1.90;;;;;;;;;;5072286;28;20560;-66
2022/08/01 12:07:44;;;;;;;1.60;1.30;;;;;;;;;;5072140;28;20045;-65
2022/08/01 12:10:13;;;;;;;1.80;1.70;;;;;;;;;;5071620;28;20457;-65
2022/08/01 12:12:49;;;;;;;2.28;1.83;;;;;;;;;;5071967;28;20052;-67
2022/08/01 12:15:17;;;;;;;1.52;1.42;;;;;;;;;;5072036;28;20130;-66
2022/08/01 12:17:49;;;;;;;3.83;1.98;;;;;;;;;;5072329;28;20051;-67
2022/08/01 12:20:32;;;;;;;3.95;1.80;;;;;;;;;;5072089;28;20052;-66
2022/08/01 12:23:01;;;;;;;2.05;1.60;;;;;;;;;;5072149;28;20450;-66
2022/08/01 12:25:28;;;;;;;1.73;1.40;;;;;;;;;;5072083;28;20045;-66
2022/08/01 12:27:56;;;;;;;1.50;1.35;;;;;;;;;;5071846;28;20045;-67
2022/08/01 12:30:26;;;;;;;3.15;1.50;;;;;;;;;;5071887;28;20166;-67
2022/08/01 12:32:54;;;;;;;3.28;1.50;;;;;;;;;;5072004;28;20076;-66
2022/08/01 12:35:23;;;;;;;1.75;1.65;;;;;;;;;;5071803;28;20054;-67
2022/08/01 12:37:54;;;;;;;2.97;1.60;;;;;;;;;;5071511;28;20055;-65
2022/08/01 12:40:29;;;;;;;1.67;1.55;;;;;;;;;;5071746;28;20049;-67
2022/08/01 12:43:02;;;;;;;1.83;1.50;;;;;;;;;;5071941;28;20061;-67
2022/08/01 12:45:34;;;;;;;1.38;1.15;;;;;;;;;;5071765;28;20052;-67
2022/08/01 12:48:01;;;;;;;2.97;1.30;;;;;;;;;;5037845;28;20044;-66
2022/08/01 12:50:30;;;;;;;4.45;1.42;;;;;;;;;;5054245;28;20479;-66
2022/08/01 12:52:57;;;;;;;3.03;1.52;;;;;;;;;;5054230;28;20053;-67
2022/08/01 12:55:26;;;;;;;1.45;1.35;;;;;;;;;;5037517;28;20056;-65
2022/08/01 12:58:07;;;;;;;2.85;1.40;;;;;;;;;;5071190;28;20056;-67
2022/08/01 13:00:43;;;;;;;2.97;1.40;;;;;;;;;;5071995;28;20527;-67
2022/08/01 13:03:19;;;;;;;2.97;2.00;;;;;;;;;;5071516;28;20597;-67
2022/08/01 13:05:50;;;;;;;1.50;1.30;;;;;;;;;;5071794;28;20051;-67
2022/08/01 13:08:18;;;;;;;1.73;1.50;;;;;;;;;;5071314;28;20518;-66
2022/08/01 13:10:46;;;;;;;1.40;1.30;;;;;;;;;;5071423;28;20055;-66
2022/08/01 13:13:13;;;;;;;1.48;1.30;;;;;;;;;;5053911;28;20059;-67
2022/08/01 13:16:04;;;;;;;3.65;1.45;;;;;;;;;;5056064;28;20415;-67
2022/08/01 13:18:32;;;;;;;1.85;1.30;;;;;;;;;;5071256;28;20054;-65
2022/08/01 13:21:18;;;;;;;2.75;1.40;;;;;;;;;;5071186;28;20091;-65
2022/08/01 13:24:01;;;;;;;1.95;1.50;;;;;;;;;;5075039;28;20270;-66
2022/08/01 13:26:42;;;;;;;2.42;1.50;;;;;;;;;;5075606;28;20098;-66
2022/08/01 13:29:11;;;;;;;2.70;1.55;;;;;;;;;;5057391;28;20055;-66
2022/08/01 13:31:38;;;;;;;1.30;1.20;;;;;;;;;;5075370;28;20053;-66
2022/08/01 13:34:05;;;;;;;2.55;1.33;;;;;;;;;;5075341;28;20044;-66
2022/08/01 13:36:32;;;;;;;1.52;1.42;;;;;;;;;;5057924;28;20052;-67
2022/08/01 13:41:45;;;;;;;3.80;1.88;;;;;;;;;;5075117;28;20048;-66
2022/08/01 13:44:13;;;;;;;3.95;1.38;;;;;;;;;;5075050;28;20059;-67
2022/08/01 13:46:40;;;;;;;2.00;1.30;;;;;;;;;;5075260;28;20060;-66
2022/08/01 13:49:16;;;;;;;1.98;1.38;;;;;;;;;;5074874;28;20124;-66
2022/08/01 13:51:46;;;;;;;2.97;1.10;;;;;;;;;;5075035;28;20056;-67
2022/08/01 13:54:13;;;;;;;1.35;1.20;;;;;;;;;;5074767;28;20131;-67
2022/08/01 13:56:39;;;;;;;1.40;1.02;;;;;;;;;;5074653;28;20485;-66
2022/08/01 13:59:06;;;;;;;1.55;1.30;;;;;;;;;;5074500;28;20055;-67
2022/08/01 14:01:33;;;;;;;2.95;1.10;;;;;;;;;;5074791;28;20051;-68
2022/08/01 14:04:00;;;;;;;1.70;1.38;;;;;;;;;;5074987;28;20457;-67
2022/08/01 14:06:27;;;;;;;1.50;1.30;;;;;;;;;;5074716;28;20048;-67
2022/08/01 14:08:54;;;;;;;1.50;1.10;;;;;;;;;;5056448;28;20044;-67
2022/08/01 14:11:22;;;;;;;2.38;1.45;;;;;;;;;;5074386;28;20048;-67
2022/08/01 14:13:48;;;;;;;1.35;1.25;;;;;;;;;;5074736;28;20054;-67
2022/08/01 14:16:16;;;;;;;1.20;1.10;;;;;;;;;;5074748;28;20056;-67
2022/08/01 14:18:43;;;;;;;1.58;1.23;;;;;;;;;;5056566;28;20139;-67
2022/08/01 14:21:10;;;;;;;1.83;1.10;;;;;;;;;;5074518;28;20447;-68
2022/08/01 14:23:36;;;;;;;1.38;1.20;;;;;;;;;;5074381;28;20045;-67
2022/08/01 14:26:03;;;;;;;2.38;1.05;;;;;;;;;;5074494;28;20060;-67
2022/08/01 14:28:37;;;;;;;2.20;1.08;;;;;;;;;;5074013;28;20041;-67
2022/08/01 14:31:05;;;;;;;1.63;1.50;;;;;;;;;;5074439;28;20055;-66
2022/08/01 14:33:32;;;;;;;1.33;1.20;;;;;;;;;;5073413;28;20063;-67
2022/08/01 14:35:59;;;;;;;2.70;1.70;;;;;;;;;;5056379;28;20048;-68
2022/08/01 14:38:46;;;;;;;4.30;1.42;;;;;;;;;;5073929;28;20106;-66
2022/08/01 14:41:16;;;;;;;2.10;1.23;;;;;;;;;;5074265;28;20052;-67
2022/08/01 14:43:42;;;;;;;3.13;1.30;;;;;;;;;;5073960;28;20044;-67
2022/08/01 14:46:09;;;;;;;1.73;1.17;;;;;;;;;;5074094;28;20488;-67
2022/08/01 14:48:36;;;;;;;1.88;1.33;;;;;;;;;;5073572;28;20044;-67
2022/08/01 14:51:03;;;;;;;1.67;1.10;;;;;;;;;;5074339;28;20053;-67
2022/08/01 14:53:31;;;;;;;1.95;1.30;;;;;;;;;;5073941;28;20512;-68
2022/08/01 14:56:02;;;;;;;3.45;1.30;;;;;;;;;;5075095;28;20053;-67
2022/08/01 14:58:28;;;;;;;1.77;1.45;;;;;;;;;;5074950;28;20040;-67
2022/08/01 15:00:55;;;;;;;1.40;1.30;;;;;;;;;;5074262;28;20052;-66
2022/08/01 15:03:25;;;;;;;3.70;1.30;;;;;;;;;;5077649;28;20084;-66